Gulfport, Florida
Current Conditions -  °F | °C
As of 6:53 AM on Saturday 25 Oct 2014 (Local Time) from KSPG Reporting Station
Clear Clear  
Wind Chill: 68°   Ceiling: Unl
Heat Index: 68°   Visibility: 10mi
Dew Point: 56°   Wind: 9mph
Humidity: 65%   Direction: 360°N
Pressure: 29.96"   Gusts: NA
Location:  27.75°N, 82.7°W
Report Text: KSPG 251053Z 36008KT 10SM CLR 20/13 A2996 RMK AO2 SLP145 T02000133
Loading
Personal Weather Stations






























Interactive Weather Map
Tropical Storm Tracking
New forecast layout! Learn more

10-Day Weather Forecast

Advertisements
Track Severe Weather on mobile